Kynouria — V7VY6 — position and weather

sailwx.info

Track history (hours):
 
Tides and Currents Weather Stations Pressure Air Temp Water Temp Dewpoint Dewpoint Depression Visibility Wind Speed Wind Dir Waves Ship Positions

Kynouria

Last reported at 2016-Dec-28 15:27 UTC. Time now 2017-Jan-23 10:36 UTC.
Position N 01°16' E 104°05'.
Warning: this ship's position is 25 days out of date.

Length 229 m; draft 14.2 m.

Type: Ship. MMSI: 538004243.

Date/timePositionNaut miles runAvg speedWind from/ knotsBaromVisibWave heightAir tempDewpointWater temp
2016-Dec-28 15:27N 01°16' E 104°05'8 9.0
2016-Dec-28 14:32N 01°15' E 103°57'2 1.6
2016-Dec-28 13:30N 01°16' E 103°56'0 0.0
2016-Dec-28 12:27N 01°16' E 103°56'0 0.0
2016-Dec-28 11:27N 01°16' E 103°56'0 0.2
2016-Dec-28 10:30N 01°16' E 103°56'0 0.1
2016-Dec-28 09:33N 01°17' E 103°56'0 0.0
2016-Dec-28 08:33N 01°17' E 103°56'0 0.0
2016-Dec-28 07:24N 01°17' E 103°56'0 0.0
2016-Dec-28 06:09N 01°17' E 103°56'0 0.1
2016-Dec-28 05:30N 01°17' E 103°56'0 0.0
2016-Dec-28 04:23N 01°17' E 103°56'2 2.3
2016-Dec-28 03:33N 01°15' E 103°57'9 9.4
2016-Dec-28 02:33N 01°10' E 103°49'6310.5
2016-Dec-27 20:32N 01°36' E 102°51'1611.9
2016-Dec-27 19:10N 01°43' E 102°36'711.7
2016-Dec-27 18:33N 01°46' E 102°30'1211.8
2016-Dec-27 17:33N 01°51' E 102°19'  
Track history (hours):
 
Tides and Currents Weather Stations Pressure Air Temp Water Temp Dewpoint Dewpoint Depression Visibility Wind Speed Wind Dir Waves Ship Positions

Kynouria

Last reported at 2016-Dec-28 15:27 UTC. Time now 2017-Jan-23 10:36 UTC.
Position N 01°16' E 104°05'.
Warning: this ship's position is 25 days out of date.

Length 229 m; draft 14.2 m.

Type: Ship. MMSI: 538004243.

Date/timePositionNaut miles runAvg speedWind from/ knotsBaromVisibWave heightAir tempDewpointWater temp
2016-Dec-28 15:27N 01°16' E 104°05'8 9.0
2016-Dec-28 14:32N 01°15' E 103°57'2 1.6
2016-Dec-28 13:30N 01°16' E 103°56'0 0.0
2016-Dec-28 12:27N 01°16' E 103°56'0 0.0
2016-Dec-28 11:27N 01°16' E 103°56'0 0.2
2016-Dec-28 10:30N 01°16' E 103°56'0 0.1
2016-Dec-28 09:33N 01°17' E 103°56'0 0.0
2016-Dec-28 08:33N 01°17' E 103°56'0 0.0
2016-Dec-28 07:24N 01°17' E 103°56'0 0.0
2016-Dec-28 06:09N 01°17' E 103°56'0 0.1
2016-Dec-28 05:30N 01°17' E 103°56'0 0.0
2016-Dec-28 04:23N 01°17' E 103°56'2 2.3
2016-Dec-28 03:33N 01°15' E 103°57'9 9.4
2016-Dec-28 02:33N 01°10' E 103°49'6310.5
2016-Dec-27 20:32N 01°36' E 102°51'1611.9
2016-Dec-27 19:10N 01°43' E 102°36'711.7
2016-Dec-27 18:33N 01°46' E 102°30'1211.8
2016-Dec-27 17:33N 01°51' E 102°19'  

Dump ship's entire track history